sensor_id;sensor_type;location;lat;lon;timestamp;P1;durP1;ratioP1;P2;durP2;ratioP2
39074;SDS011;24826;52.070;20.970;2023-01-09T00:00:07;41.17;;;23.65;;
39074;SDS011;24826;52.070;20.970;2023-01-09T00:03:13;46.15;;;24.73;;
39074;SDS011;24826;52.070;20.970;2023-01-09T00:05:57;41.67;;;22.98;;
39074;SDS011;24826;52.070;20.970;2023-01-09T00:08:42;41.08;;;22.60;;
39074;SDS011;24826;52.070;20.970;2023-01-09T00:11:26;39.65;;;21.80;;
39074;SDS011;24826;52.070;20.970;2023-01-09T00:14:11;48.00;;;24.10;;
39074;SDS011;24826;52.070;20.970;2023-01-09T00:16:55;40.17;;;22.60;;
39074;SDS011;24826;52.070;20.970;2023-01-09T00:19:40;42.20;;;23.58;;
39074;SDS011;24826;52.070;20.970;2023-01-09T00:22:24;42.05;;;23.05;;
39074;SDS011;24826;52.070;20.970;2023-01-09T00:25:09;37.65;;;21.70;;
39074;SDS011;24826;52.070;20.970;2023-01-09T00:27:53;37.38;;;21.13;;
39074;SDS011;24826;52.070;20.970;2023-01-09T00:30:39;46.50;;;23.67;;
39074;SDS011;24826;52.070;20.970;2023-01-09T00:33:25;37.38;;;21.75;;
39074;SDS011;24826;52.070;20.970;2023-01-09T00:36:31;38.90;;;22.13;;
39074;SDS011;24826;52.070;20.970;2023-01-09T00:39:16;39.95;;;22.20;;
39074;SDS011;24826;52.070;20.970;2023-01-09T00:42:00;39.67;;;23.17;;
39074;SDS011;24826;52.070;20.970;2023-01-09T00:44:49;39.03;;;21.38;;
39074;SDS011;24826;52.070;20.970;2023-01-09T00:47:40;38.88;;;22.30;;
39074;SDS011;24826;52.070;20.970;2023-01-09T00:50:27;39.50;;;22.25;;
39074;SDS011;24826;52.070;20.970;2023-01-09T00:53:14;37.10;;;21.83;;
39074;SDS011;24826;52.070;20.970;2023-01-09T00:56:03;36.08;;;20.98;;
39074;SDS011;24826;52.070;20.970;2023-01-09T00:58:50;42.30;;;23.40;;
39074;SDS011;24826;52.070;20.970;2023-01-09T01:01:35;38.35;;;22.02;;
39074;SDS011;24826;52.070;20.970;2023-01-09T01:04:19;40.10;;;22.73;;
39074;SDS011;24826;52.070;20.970;2023-01-09T01:07:23;36.45;;;21.08;;
39074;SDS011;24826;52.070;20.970;2023-01-09T01:10:23;40.35;;;22.23;;
39074;SDS011;24826;52.070;20.970;2023-01-09T01:13:09;48.53;;;22.90;;
39074;SDS011;24826;52.070;20.970;2023-01-09T01:15:54;37.53;;;21.90;;
39074;SDS011;24826;52.070;20.970;2023-01-09T01:18:38;41.08;;;22.60;;
39074;SDS011;24826;52.070;20.970;2023-01-09T01:21:23;37.83;;;21.67;;
39074;SDS011;24826;52.070;20.970;2023-01-09T01:24:07;36.08;;;20.90;;
39074;SDS011;24826;52.070;20.970;2023-01-09T01:26:52;40.17;;;20.88;;
39074;SDS011;24826;52.070;20.970;2023-01-09T01:29:36;42.78;;;24.13;;
39074;SDS011;24826;52.070;20.970;2023-01-09T01:32:21;34.65;;;20.95;;
39074;SDS011;24826;52.070;20.970;2023-01-09T01:35:06;42.20;;;22.30;;
39074;SDS011;24826;52.070;20.970;2023-01-09T01:37:51;38.75;;;23.38;;
39074;SDS011;24826;52.070;20.970;2023-01-09T01:40:35;38.97;;;23.30;;
39074;SDS011;24826;52.070;20.970;2023-01-09T01:43:21;38.47;;;23.00;;
39074;SDS011;24826;52.070;20.970;2023-01-09T01:46:05;38.45;;;22.67;;
39074;SDS011;24826;52.070;20.970;2023-01-09T01:48:51;39.03;;;22.38;;
39074;SDS011;24826;52.070;20.970;2023-01-09T01:51:39;38.65;;;21.95;;
39074;SDS011;24826;52.070;20.970;2023-01-09T01:54:28;39.90;;;22.80;;
39074;SDS011;24826;52.070;20.970;2023-01-09T01:57:14;41.33;;;22.30;;
39074;SDS011;24826;52.070;20.970;2023-01-09T01:59:59;40.58;;;23.60;;
39074;SDS011;24826;52.070;20.970;2023-01-09T02:02:46;41.72;;;22.58;;
39074;SDS011;24826;52.070;20.970;2023-01-09T02:05:30;37.78;;;23.00;;
39074;SDS011;24826;52.070;20.970;2023-01-09T02:08:17;36.33;;;22.38;;
39074;SDS011;24826;52.070;20.970;2023-01-09T02:11:02;40.25;;;22.92;;
39074;SDS011;24826;52.070;20.970;2023-01-09T02:13:47;39.22;;;22.52;;
39074;SDS011;24826;52.070;20.970;2023-01-09T02:23:14;34.42;;;20.35;;
39074;SDS011;24826;52.070;20.970;2023-01-09T02:43:22;36.75;;;22.85;;
39074;SDS011;24826;52.070;20.970;2023-01-09T02:46:17;36.33;;;21.77;;
39074;SDS011;24826;52.070;20.970;2023-01-09T02:49:03;36.22;;;21.38;;
39074;SDS011;24826;52.070;20.970;2023-01-09T02:51:52;38.15;;;21.98;;
39074;SDS011;24826;52.070;20.970;2023-01-09T03:04:09;39.95;;;22.00;;
39074;SDS011;24826;52.070;20.970;2023-01-09T03:10:14;38.17;;;22.00;;
39074;SDS011;24826;52.070;20.970;2023-01-09T03:13:02;37.03;;;22.75;;
39074;SDS011;24826;52.070;20.970;2023-01-09T03:15:51;37.10;;;21.73;;
39074;SDS011;24826;52.070;20.970;2023-01-09T03:18:38;36.72;;;22.38;;
39074;SDS011;24826;52.070;20.970;2023-01-09T03:21:23;35.17;;;22.10;;
39074;SDS011;24826;52.070;20.970;2023-01-09T03:24:09;39.63;;;22.55;;
39074;SDS011;24826;52.070;20.970;2023-01-09T03:26:54;38.60;;;22.23;;
39074;SDS011;24826;52.070;20.970;2023-01-09T03:29:39;39.05;;;23.30;;
39074;SDS011;24826;52.070;20.970;2023-01-09T03:32:23;34.78;;;21.30;;
39074;SDS011;24826;52.070;20.970;2023-01-09T03:35:10;35.83;;;20.83;;
39074;SDS011;24826;52.070;20.970;2023-01-09T03:37:55;39.08;;;22.73;;
39074;SDS011;24826;52.070;20.970;2023-01-09T03:40:39;36.63;;;21.90;;
39074;SDS011;24826;52.070;20.970;2023-01-09T03:43:26;35.40;;;20.27;;
39074;SDS011;24826;52.070;20.970;2023-01-09T03:46:11;35.67;;;20.33;;
39074;SDS011;24826;52.070;20.970;2023-01-09T03:48:55;33.90;;;21.52;;
39074;SDS011;24826;52.070;20.970;2023-01-09T03:51:39;35.55;;;21.10;;
39074;SDS011;24826;52.070;20.970;2023-01-09T03:54:24;34.08;;;21.35;;
39074;SDS011;24826;52.070;20.970;2023-01-09T03:57:08;38.30;;;21.75;;
39074;SDS011;24826;52.070;20.970;2023-01-09T03:59:53;33.05;;;20.90;;
39074;SDS011;24826;52.070;20.970;2023-01-09T04:02:37;32.42;;;20.33;;
39074;SDS011;24826;52.070;20.970;2023-01-09T04:05:22;33.47;;;20.08;;
39074;SDS011;24826;52.070;20.970;2023-01-09T04:08:06;32.90;;;20.23;;
39074;SDS011;24826;52.070;20.970;2023-01-09T04:10:51;35.10;;;22.08;;
39074;SDS011;24826;52.070;20.970;2023-01-09T04:13:35;34.67;;;20.60;;
39074;SDS011;24826;52.070;20.970;2023-01-09T04:16:20;35.53;;;20.85;;
39074;SDS011;24826;52.070;20.970;2023-01-09T04:19:04;32.08;;;20.25;;
39074;SDS011;24826;52.070;20.970;2023-01-09T04:21:49;35.13;;;20.80;;
39074;SDS011;24826;52.070;20.970;2023-01-09T04:24:33;33.53;;;20.13;;
39074;SDS011;24826;52.070;20.970;2023-01-09T04:27:17;30.77;;;20.08;;
39074;SDS011;24826;52.070;20.970;2023-01-09T04:30:02;32.38;;;18.50;;
39074;SDS011;24826;52.070;20.970;2023-01-09T04:32:47;33.10;;;20.02;;
39074;SDS011;24826;52.070;20.970;2023-01-09T04:35:32;30.90;;;19.15;;
39074;SDS011;24826;52.070;20.970;2023-01-09T04:38:16;34.65;;;19.67;;
39074;SDS011;24826;52.070;20.970;2023-01-09T04:41:01;31.40;;;19.83;;
39074;SDS011;24826;52.070;20.970;2023-01-09T04:43:45;30.73;;;19.15;;
39074;SDS011;24826;52.070;20.970;2023-01-09T04:46:29;33.88;;;19.58;;
39074;SDS011;24826;52.070;20.970;2023-01-09T04:49:14;32.22;;;19.27;;
39074;SDS011;24826;52.070;20.970;2023-01-09T04:51:58;31.42;;;18.92;;
39074;SDS011;24826;52.070;20.970;2023-01-09T04:54:43;32.58;;;19.35;;
39074;SDS011;24826;52.070;20.970;2023-01-09T04:57:28;31.08;;;18.95;;
39074;SDS011;24826;52.070;20.970;2023-01-09T05:00:12;31.38;;;20.20;;
39074;SDS011;24826;52.070;20.970;2023-01-09T05:02:57;33.55;;;18.98;;
39074;SDS011;24826;52.070;20.970;2023-01-09T05:05:42;31.98;;;18.85;;
39074;SDS011;24826;52.070;20.970;2023-01-09T05:08:27;34.05;;;19.33;;
39074;SDS011;24826;52.070;20.970;2023-01-09T05:11:12;34.15;;;19.52;;
39074;SDS011;24826;52.070;20.970;2023-01-09T05:13:56;27.17;;;17.73;;
39074;SDS011;24826;52.070;20.970;2023-01-09T05:16:41;32.55;;;19.50;;
39074;SDS011;24826;52.070;20.970;2023-01-09T05:19:25;32.17;;;19.25;;
39074;SDS011;24826;52.070;20.970;2023-01-09T05:22:10;32.67;;;19.35;;
39074;SDS011;24826;52.070;20.970;2023-01-09T05:24:56;30.83;;;17.52;;
39074;SDS011;24826;52.070;20.970;2023-01-09T05:27:40;30.42;;;19.52;;
39074;SDS011;24826;52.070;20.970;2023-01-09T05:30:28;28.67;;;18.15;;
39074;SDS011;24826;52.070;20.970;2023-01-09T05:33:13;29.63;;;18.23;;
39074;SDS011;24826;52.070;20.970;2023-01-09T05:35:57;27.58;;;17.15;;
39074;SDS011;24826;52.070;20.970;2023-01-09T05:38:42;27.92;;;17.33;;
39074;SDS011;24826;52.070;20.970;2023-01-09T05:41:27;29.88;;;18.17;;
39074;SDS011;24826;52.070;20.970;2023-01-09T05:44:11;31.90;;;18.70;;
39074;SDS011;24826;52.070;20.970;2023-01-09T05:46:55;27.63;;;17.02;;
39074;SDS011;24826;52.070;20.970;2023-01-09T05:49:40;30.38;;;17.88;;
39074;SDS011;24826;52.070;20.970;2023-01-09T05:52:24;29.67;;;17.98;;
39074;SDS011;24826;52.070;20.970;2023-01-09T05:55:09;26.73;;;18.40;;
39074;SDS011;24826;52.070;20.970;2023-01-09T05:57:55;27.38;;;17.38;;
39074;SDS011;24826;52.070;20.970;2023-01-09T06:00:39;28.63;;;17.17;;
39074;SDS011;24826;52.070;20.970;2023-01-09T06:03:23;32.83;;;18.00;;
39074;SDS011;24826;52.070;20.970;2023-01-09T06:06:08;30.83;;;17.67;;
39074;SDS011;24826;52.070;20.970;2023-01-09T06:08:52;28.55;;;17.75;;
39074;SDS011;24826;52.070;20.970;2023-01-09T06:11:37;27.08;;;17.25;;
39074;SDS011;24826;52.070;20.970;2023-01-09T06:14:21;30.55;;;18.98;;
39074;SDS011;24826;52.070;20.970;2023-01-09T06:17:06;31.75;;;18.10;;
39074;SDS011;24826;52.070;20.970;2023-01-09T06:19:51;27.00;;;17.77;;
39074;SDS011;24826;52.070;20.970;2023-01-09T06:22:36;27.52;;;16.38;;
39074;SDS011;24826;52.070;20.970;2023-01-09T06:25:20;32.75;;;18.80;;
39074;SDS011;24826;52.070;20.970;2023-01-09T06:28:05;27.15;;;16.55;;
39074;SDS011;24826;52.070;20.970;2023-01-09T06:30:50;28.75;;;17.45;;
39074;SDS011;24826;52.070;20.970;2023-01-09T06:33:35;28.95;;;17.33;;
39074;SDS011;24826;52.070;20.970;2023-01-09T06:36:20;25.73;;;16.75;;
39074;SDS011;24826;52.070;20.970;2023-01-09T06:39:04;29.20;;;17.48;;
39074;SDS011;24826;52.070;20.970;2023-01-09T06:41:49;29.15;;;16.80;;
39074;SDS011;24826;52.070;20.970;2023-01-09T06:44:33;24.55;;;15.98;;
39074;SDS011;24826;52.070;20.970;2023-01-09T06:47:19;27.23;;;17.08;;
39074;SDS011;24826;52.070;20.970;2023-01-09T06:50:04;27.75;;;17.25;;
39074;SDS011;24826;52.070;20.970;2023-01-09T06:52:50;29.52;;;16.58;;
39074;SDS011;24826;52.070;20.970;2023-01-09T06:55:35;26.73;;;16.50;;
39074;SDS011;24826;52.070;20.970;2023-01-09T06:58:19;24.35;;;15.82;;
39074;SDS011;24826;52.070;20.970;2023-01-09T07:01:04;25.10;;;15.27;;
39074;SDS011;24826;52.070;20.970;2023-01-09T07:03:48;26.20;;;15.82;;
39074;SDS011;24826;52.070;20.970;2023-01-09T07:06:33;25.02;;;16.33;;
39074;SDS011;24826;52.070;20.970;2023-01-09T07:09:17;27.58;;;17.35;;
39074;SDS011;24826;52.070;20.970;2023-01-09T07:12:01;28.60;;;16.80;;
39074;SDS011;24826;52.070;20.970;2023-01-09T07:14:46;29.40;;;16.92;;
39074;SDS011;24826;52.070;20.970;2023-01-09T07:17:30;24.63;;;15.93;;
39074;SDS011;24826;52.070;20.970;2023-01-09T07:20:15;25.30;;;15.43;;
39074;SDS011;24826;52.070;20.970;2023-01-09T07:23:01;24.73;;;16.08;;
39074;SDS011;24826;52.070;20.970;2023-01-09T07:25:45;25.55;;;15.80;;
39074;SDS011;24826;52.070;20.970;2023-01-09T07:28:29;25.15;;;15.55;;
39074;SDS011;24826;52.070;20.970;2023-01-09T07:31:13;25.23;;;15.68;;
39074;SDS011;24826;52.070;20.970;2023-01-09T07:33:58;25.67;;;15.73;;
39074;SDS011;24826;52.070;20.970;2023-01-09T07:36:42;25.10;;;15.02;;
39074;SDS011;24826;52.070;20.970;2023-01-09T07:39:29;21.80;;;14.38;;
39074;SDS011;24826;52.070;20.970;2023-01-09T07:42:13;22.95;;;15.07;;
39074;SDS011;24826;52.070;20.970;2023-01-09T07:44:58;24.75;;;14.80;;
39074;SDS011;24826;52.070;20.970;2023-01-09T07:47:43;24.05;;;14.75;;
39074;SDS011;24826;52.070;20.970;2023-01-09T07:50:27;26.50;;;15.95;;
39074;SDS011;24826;52.070;20.970;2023-01-09T07:53:12;22.73;;;14.48;;
39074;SDS011;24826;52.070;20.970;2023-01-09T07:55:56;22.83;;;14.98;;
39074;SDS011;24826;52.070;20.970;2023-01-09T07:58:40;23.23;;;14.40;;
39074;SDS011;24826;52.070;20.970;2023-01-09T08:01:25;22.58;;;14.38;;
39074;SDS011;24826;52.070;20.970;2023-01-09T08:04:10;26.05;;;15.43;;
39074;SDS011;24826;52.070;20.970;2023-01-09T08:06:54;25.02;;;15.60;;
39074;SDS011;24826;52.070;20.970;2023-01-09T08:09:40;23.13;;;15.43;;
39074;SDS011;24826;52.070;20.970;2023-01-09T08:12:24;23.08;;;16.08;;
39074;SDS011;24826;52.070;20.970;2023-01-09T08:15:09;22.17;;;15.68;;
39074;SDS011;24826;52.070;20.970;2023-01-09T08:17:53;25.05;;;15.65;;
39074;SDS011;24826;52.070;20.970;2023-01-09T08:20:38;25.02;;;15.35;;
39074;SDS011;24826;52.070;20.970;2023-01-09T08:23:22;26.95;;;16.40;;
39074;SDS011;24826;52.070;20.970;2023-01-09T08:26:07;24.50;;;15.60;;
39074;SDS011;24826;52.070;20.970;2023-01-09T08:28:51;28.50;;;16.02;;
39074;SDS011;24826;52.070;20.970;2023-01-09T08:31:36;26.33;;;16.08;;
39074;SDS011;24826;52.070;20.970;2023-01-09T08:34:20;26.40;;;15.23;;
39074;SDS011;24826;52.070;20.970;2023-01-09T08:37:05;23.38;;;16.02;;
39074;SDS011;24826;52.070;20.970;2023-01-09T08:39:50;25.40;;;15.35;;
39074;SDS011;24826;52.070;20.970;2023-01-09T08:42:34;25.92;;;16.20;;
39074;SDS011;24826;52.070;20.970;2023-01-09T08:45:38;23.92;;;14.63;;
39074;SDS011;24826;52.070;20.970;2023-01-09T08:48:41;23.38;;;15.85;;
39074;SDS011;24826;52.070;20.970;2023-01-09T08:51:26;24.30;;;15.85;;
39074;SDS011;24826;52.070;20.970;2023-01-09T08:54:11;25.70;;;15.55;;
39074;SDS011;24826;52.070;20.970;2023-01-09T08:56:56;24.45;;;16.42;;
39074;SDS011;24826;52.070;20.970;2023-01-09T08:59:40;25.60;;;16.35;;
39074;SDS011;24826;52.070;20.970;2023-01-09T09:02:24;26.38;;;17.60;;
39074;SDS011;24826;52.070;20.970;2023-01-09T09:05:09;24.90;;;15.73;;
39074;SDS011;24826;52.070;20.970;2023-01-09T09:07:53;28.90;;;16.65;;
39074;SDS011;24826;52.070;20.970;2023-01-09T09:10:39;25.15;;;16.67;;
39074;SDS011;24826;52.070;20.970;2023-01-09T09:13:23;24.05;;;15.77;;
39074;SDS011;24826;52.070;20.970;2023-01-09T09:16:07;27.70;;;15.68;;
39074;SDS011;24826;52.070;20.970;2023-01-09T09:18:51;27.27;;;15.60;;
39074;SDS011;24826;52.070;20.970;2023-01-09T09:21:36;30.80;;;16.40;;
39074;SDS011;24826;52.070;20.970;2023-01-09T09:24:20;27.38;;;16.33;;
39074;SDS011;24826;52.070;20.970;2023-01-09T09:27:05;29.30;;;16.88;;
39074;SDS011;24826;52.070;20.970;2023-01-09T09:29:49;25.83;;;15.95;;
39074;SDS011;24826;52.070;20.970;2023-01-09T09:32:34;26.92;;;16.25;;
39074;SDS011;24826;52.070;20.970;2023-01-09T09:35:18;23.48;;;15.80;;
39074;SDS011;24826;52.070;20.970;2023-01-09T09:38:03;28.75;;;17.30;;
39074;SDS011;24826;52.070;20.970;2023-01-09T09:53:42;26.25;;;16.13;;
39074;SDS011;24826;52.070;20.970;2023-01-09T09:56:37;28.75;;;16.15;;
39074;SDS011;24826;52.070;20.970;2023-01-09T09:59:33;26.27;;;15.98;;
39074;SDS011;24826;52.070;20.970;2023-01-09T10:05:28;27.33;;;17.58;;
39074;SDS011;24826;52.070;20.970;2023-01-09T10:11:01;23.60;;;14.18;;
39074;SDS011;24826;52.070;20.970;2023-01-09T10:13:46;23.60;;;15.10;;
39074;SDS011;24826;52.070;20.970;2023-01-09T10:32:32;25.20;;;16.50;;
39074;SDS011;24826;52.070;20.970;2023-01-09T10:38:14;28.38;;;16.17;;
39074;SDS011;24826;52.070;20.970;2023-01-09T10:44:12;28.73;;;17.98;;
39074;SDS011;24826;52.070;20.970;2023-01-09T10:47:03;26.45;;;17.05;;
39074;SDS011;24826;52.070;20.970;2023-01-09T10:49:53;26.23;;;17.20;;
39074;SDS011;24826;52.070;20.970;2023-01-09T10:52:38;29.45;;;17.95;;
39074;SDS011;24826;52.070;20.970;2023-01-09T10:58:24;32.38;;;18.67;;
39074;SDS011;24826;52.070;20.970;2023-01-09T11:01:09;27.02;;;17.73;;
39074;SDS011;24826;52.070;20.970;2023-01-09T11:03:54;28.63;;;18.27;;
39074;SDS011;24826;52.070;20.970;2023-01-09T11:06:43;28.15;;;18.30;;
39074;SDS011;24826;52.070;20.970;2023-01-09T11:13:12;26.13;;;17.08;;
39074;SDS011;24826;52.070;20.970;2023-01-09T11:16:03;29.88;;;19.27;;
39074;SDS011;24826;52.070;20.970;2023-01-09T11:21:41;28.08;;;19.08;;
39074;SDS011;24826;52.070;20.970;2023-01-09T11:24:26;29.85;;;19.25;;
39074;SDS011;24826;52.070;20.970;2023-01-09T11:30:04;30.35;;;19.00;;
39074;SDS011;24826;52.070;20.970;2023-01-09T11:32:57;26.48;;;18.30;;
39074;SDS011;24826;52.070;20.970;2023-01-09T11:39:13;26.23;;;17.67;;
39074;SDS011;24826;52.070;20.970;2023-01-09T11:42:05;30.52;;;18.40;;
39074;SDS011;24826;52.070;20.970;2023-01-09T11:45:01;28.85;;;19.05;;
39074;SDS011;24826;52.070;20.970;2023-01-09T11:47:46;25.77;;;17.60;;
39074;SDS011;24826;52.070;20.970;2023-01-09T11:50:30;28.83;;;18.98;;
39074;SDS011;24826;52.070;20.970;2023-01-09T11:53:16;28.20;;;20.08;;
39074;SDS011;24826;52.070;20.970;2023-01-09T11:56:02;27.25;;;18.88;;
39074;SDS011;24826;52.070;20.970;2023-01-09T11:58:47;29.63;;;19.95;;
39074;SDS011;24826;52.070;20.970;2023-01-09T12:04:43;28.67;;;19.35;;
39074;SDS011;24826;52.070;20.970;2023-01-09T12:07:45;32.83;;;21.30;;
39074;SDS011;24826;52.070;20.970;2023-01-09T12:32:40;35.17;;;21.45;;
39074;SDS011;24826;52.070;20.970;2023-01-09T12:35:32;33.67;;;21.10;;
39074;SDS011;24826;52.070;20.970;2023-01-09T12:38:26;28.70;;;21.13;;
39074;SDS011;24826;52.070;20.970;2023-01-09T12:44:48;32.70;;;21.60;;
39074;SDS011;24826;52.070;20.970;2023-01-09T12:47:42;31.83;;;21.38;;
39074;SDS011;24826;52.070;20.970;2023-01-09T13:05:36;31.15;;;21.67;;
39074;SDS011;24826;52.070;20.970;2023-01-09T13:11:11;31.92;;;22.33;;
39074;SDS011;24826;52.070;20.970;2023-01-09T13:14:05;29.05;;;21.98;;
39074;SDS011;24826;52.070;20.970;2023-01-09T13:16:58;29.15;;;21.02;;
39074;SDS011;24826;52.070;20.970;2023-01-09T13:19:45;30.75;;;20.52;;
39074;SDS011;24826;52.070;20.970;2023-01-09T13:22:30;35.05;;;22.60;;
39074;SDS011;24826;52.070;20.970;2023-01-09T13:25:18;31.98;;;21.05;;
39074;SDS011;24826;52.070;20.970;2023-01-09T13:28:20;28.35;;;20.17;;
39074;SDS011;24826;52.070;20.970;2023-01-09T13:31:30;31.83;;;22.27;;
39074;SDS011;24826;52.070;20.970;2023-01-09T13:34:28;27.85;;;20.05;;
39074;SDS011;24826;52.070;20.970;2023-01-09T13:37:21;29.92;;;20.58;;
39074;SDS011;24826;52.070;20.970;2023-01-09T13:43:05;36.20;;;21.52;;
39074;SDS011;24826;52.070;20.970;2023-01-09T13:45:52;30.92;;;20.50;;
39074;SDS011;24826;52.070;20.970;2023-01-09T13:48:40;30.33;;;21.38;;
39074;SDS011;24826;52.070;20.970;2023-01-09T13:51:35;27.77;;;21.55;;
39074;SDS011;24826;52.070;20.970;2023-01-09T13:57:35;30.23;;;20.55;;
39074;SDS011;24826;52.070;20.970;2023-01-09T14:03:19;29.90;;;20.67;;
39074;SDS011;24826;52.070;20.970;2023-01-09T14:06:15;31.75;;;20.98;;
39074;SDS011;24826;52.070;20.970;2023-01-09T14:09:45;31.83;;;21.73;;
39074;SDS011;24826;52.070;20.970;2023-01-09T14:12:09;30.88;;;21.85;;
39074;SDS011;24826;52.070;20.970;2023-01-09T14:14:59;33.83;;;21.13;;
39074;SDS011;24826;52.070;20.970;2023-01-09T14:17:45;30.33;;;21.13;;
39074;SDS011;24826;52.070;20.970;2023-01-09T14:20:36;29.25;;;20.33;;
39074;SDS011;24826;52.070;20.970;2023-01-09T14:23:24;27.95;;;19.88;;
39074;SDS011;24826;52.070;20.970;2023-01-09T14:26:44;33.47;;;21.15;;
39074;SDS011;24826;52.070;20.970;2023-01-09T14:29:38;31.35;;;20.65;;
39074;SDS011;24826;52.070;20.970;2023-01-09T14:35:12;30.80;;;21.60;;
39074;SDS011;24826;52.070;20.970;2023-01-09T14:38:04;28.90;;;21.10;;
39074;SDS011;24826;52.070;20.970;2023-01-09T14:47:48;29.15;;;19.98;;
39074;SDS011;24826;52.070;20.970;2023-01-09T14:50:39;31.85;;;21.80;;
39074;SDS011;24826;52.070;20.970;2023-01-09T14:53:30;33.17;;;21.27;;
39074;SDS011;24826;52.070;20.970;2023-01-09T14:56:24;32.08;;;21.17;;
39074;SDS011;24826;52.070;20.970;2023-01-09T14:59:12;30.45;;;20.55;;
39074;SDS011;24826;52.070;20.970;2023-01-09T15:01:57;30.60;;;19.30;;
39074;SDS011;24826;52.070;20.970;2023-01-09T15:04:42;31.02;;;20.58;;
39074;SDS011;24826;52.070;20.970;2023-01-09T15:07:28;28.13;;;19.63;;
39074;SDS011;24826;52.070;20.970;2023-01-09T15:10:21;25.40;;;19.55;;
39074;SDS011;24826;52.070;20.970;2023-01-09T15:13:13;27.30;;;19.35;;
39074;SDS011;24826;52.070;20.970;2023-01-09T15:16:03;30.55;;;20.02;;
39074;SDS011;24826;52.070;20.970;2023-01-09T15:18:50;30.50;;;20.25;;
39074;SDS011;24826;52.070;20.970;2023-01-09T15:21:38;28.15;;;19.95;;
39074;SDS011;24826;52.070;20.970;2023-01-09T15:24:25;29.38;;;20.55;;
39074;SDS011;24826;52.070;20.970;2023-01-09T15:27:12;31.13;;;20.10;;
39074;SDS011;24826;52.070;20.970;2023-01-09T15:30:13;31.15;;;20.35;;
39074;SDS011;24826;52.070;20.970;2023-01-09T15:33:01;27.33;;;19.35;;
39074;SDS011;24826;52.070;20.970;2023-01-09T15:35:48;27.50;;;20.10;;
39074;SDS011;24826;52.070;20.970;2023-01-09T15:38:35;28.77;;;20.17;;
39074;SDS011;24826;52.070;20.970;2023-01-09T15:41:27;27.25;;;19.10;;
39074;SDS011;24826;52.070;20.970;2023-01-09T15:44:31;28.38;;;18.00;;
39074;SDS011;24826;52.070;20.970;2023-01-09T15:47:21;28.45;;;18.63;;
39074;SDS011;24826;52.070;20.970;2023-01-09T15:50:11;27.05;;;19.65;;
39074;SDS011;24826;52.070;20.970;2023-01-09T15:52:58;26.10;;;19.38;;
39074;SDS011;24826;52.070;20.970;2023-01-09T15:55:42;26.85;;;19.65;;
39074;SDS011;24826;52.070;20.970;2023-01-09T15:58:28;27.77;;;20.48;;
39074;SDS011;24826;52.070;20.970;2023-01-09T16:06:54;29.70;;;19.63;;
39074;SDS011;24826;52.070;20.970;2023-01-09T16:09:39;29.85;;;19.85;;
39074;SDS011;24826;52.070;20.970;2023-01-09T16:12:28;29.80;;;19.80;;
39074;SDS011;24826;52.070;20.970;2023-01-09T16:15:13;26.75;;;20.05;;
39074;SDS011;24826;52.070;20.970;2023-01-09T16:21:00;30.45;;;21.08;;
39074;SDS011;24826;52.070;20.970;2023-01-09T16:23:50;31.73;;;20.88;;
39074;SDS011;24826;52.070;20.970;2023-01-09T16:26:39;30.60;;;21.38;;
39074;SDS011;24826;52.070;20.970;2023-01-09T16:29:34;32.13;;;22.40;;
39074;SDS011;24826;52.070;20.970;2023-01-09T16:33:03;29.45;;;20.95;;
39074;SDS011;24826;52.070;20.970;2023-01-09T16:35:29;30.95;;;20.42;;
39074;SDS011;24826;52.070;20.970;2023-01-09T16:38:14;28.65;;;20.17;;
39074;SDS011;24826;52.070;20.970;2023-01-09T16:41:00;32.10;;;21.55;;
39074;SDS011;24826;52.070;20.970;2023-01-09T16:44:05;30.98;;;21.17;;
39074;SDS011;24826;52.070;20.970;2023-01-09T16:46:54;26.98;;;19.42;;
39074;SDS011;24826;52.070;20.970;2023-01-09T16:49:39;28.42;;;20.17;;
39074;SDS011;24826;52.070;20.970;2023-01-09T16:52:24;28.55;;;19.77;;
39074;SDS011;24826;52.070;20.970;2023-01-09T16:55:08;27.88;;;19.27;;
39074;SDS011;24826;52.070;20.970;2023-01-09T16:57:53;27.30;;;18.95;;
39074;SDS011;24826;52.070;20.970;2023-01-09T17:00:38;27.77;;;19.52;;
39074;SDS011;24826;52.070;20.970;2023-01-09T17:03:23;27.83;;;18.98;;
39074;SDS011;24826;52.070;20.970;2023-01-09T17:06:09;27.17;;;19.65;;
39074;SDS011;24826;52.070;20.970;2023-01-09T17:09:02;28.65;;;20.45;;
39074;SDS011;24826;52.070;20.970;2023-01-09T17:11:47;26.02;;;18.48;;
39074;SDS011;24826;52.070;20.970;2023-01-09T17:14:31;28.50;;;19.73;;
39074;SDS011;24826;52.070;20.970;2023-01-09T17:17:16;27.98;;;19.60;;
39074;SDS011;24826;52.070;20.970;2023-01-09T17:20:01;27.08;;;18.80;;
39074;SDS011;24826;52.070;20.970;2023-01-09T17:22:49;26.00;;;19.58;;
39074;SDS011;24826;52.070;20.970;2023-01-09T17:25:34;25.98;;;18.27;;
39074;SDS011;24826;52.070;20.970;2023-01-09T17:28:38;26.85;;;19.13;;
39074;SDS011;24826;52.070;20.970;2023-01-09T17:31:26;27.40;;;19.15;;
39074;SDS011;24826;52.070;20.970;2023-01-09T17:34:11;29.58;;;20.95;;
39074;SDS011;24826;52.070;20.970;2023-01-09T17:36:55;29.90;;;19.83;;
39074;SDS011;24826;52.070;20.970;2023-01-09T17:39:40;24.85;;;18.30;;
39074;SDS011;24826;52.070;20.970;2023-01-09T17:42:24;29.00;;;19.95;;
39074;SDS011;24826;52.070;20.970;2023-01-09T17:45:09;29.58;;;19.83;;
39074;SDS011;24826;52.070;20.970;2023-01-09T17:47:54;27.60;;;19.63;;
39074;SDS011;24826;52.070;20.970;2023-01-09T17:50:39;27.20;;;19.40;;
39074;SDS011;24826;52.070;20.970;2023-01-09T17:53:23;26.55;;;18.42;;
39074;SDS011;24826;52.070;20.970;2023-01-09T17:56:12;25.52;;;18.95;;
39074;SDS011;24826;52.070;20.970;2023-01-09T17:59:17;28.20;;;19.30;;
39074;SDS011;24826;52.070;20.970;2023-01-09T18:02:02;29.67;;;19.23;;
39074;SDS011;24826;52.070;20.970;2023-01-09T18:04:46;29.25;;;19.80;;
39074;SDS011;24826;52.070;20.970;2023-01-09T18:07:31;27.35;;;18.40;;
39074;SDS011;24826;52.070;20.970;2023-01-09T18:10:16;27.95;;;21.13;;
39074;SDS011;24826;52.070;20.970;2023-01-09T18:13:02;29.27;;;20.05;;
39074;SDS011;24826;52.070;20.970;2023-01-09T18:15:46;24.08;;;18.67;;
39074;SDS011;24826;52.070;20.970;2023-01-09T18:18:31;28.77;;;18.73;;
39074;SDS011;24826;52.070;20.970;2023-01-09T18:21:17;29.58;;;18.65;;
39074;SDS011;24826;52.070;20.970;2023-01-09T18:24:03;28.48;;;19.35;;
39074;SDS011;24826;52.070;20.970;2023-01-09T18:26:48;28.63;;;19.00;;
39074;SDS011;24826;52.070;20.970;2023-01-09T18:29:32;26.05;;;18.38;;
39074;SDS011;24826;52.070;20.970;2023-01-09T18:32:17;26.42;;;18.45;;
39074;SDS011;24826;52.070;20.970;2023-01-09T18:35:01;27.83;;;19.90;;
39074;SDS011;24826;52.070;20.970;2023-01-09T18:37:45;24.25;;;18.52;;
39074;SDS011;24826;52.070;20.970;2023-01-09T18:40:31;29.05;;;19.55;;
39074;SDS011;24826;52.070;20.970;2023-01-09T18:43:16;25.73;;;17.85;;
39074;SDS011;24826;52.070;20.970;2023-01-09T18:46:04;28.27;;;19.70;;
39074;SDS011;24826;52.070;20.970;2023-01-09T18:48:51;26.15;;;18.80;;